sensor_id;sensor_type;location;lat;lon;timestamp;temperature;humidity
23532;DHT22;11943;52.270;20.978;2023-02-28T00:02:19;-1.20;99.90
23532;DHT22;11943;52.270;20.978;2023-02-28T00:04:45;-1.20;99.90
23532;DHT22;11943;52.270;20.978;2023-02-28T00:07:18;-1.20;99.90
23532;DHT22;11943;52.270;20.978;2023-02-28T00:09:43;-1.20;99.90
23532;DHT22;11943;52.270;20.978;2023-02-28T00:12:09;-1.30;99.90
23532;DHT22;11943;52.270;20.978;2023-02-28T00:14:36;-1.30;99.90
23532;DHT22;11943;52.270;20.978;2023-02-28T00:17:01;-1.40;99.90
23532;DHT22;11943;52.270;20.978;2023-02-28T00:19:27;-1.40;99.90
23532;DHT22;11943;52.270;20.978;2023-02-28T00:21:52;-1.30;99.90
23532;DHT22;11943;52.270;20.978;2023-02-28T00:24:18;-1.30;99.90
23532;DHT22;11943;52.270;20.978;2023-02-28T00:26:43;-1.30;99.90
23532;DHT22;11943;52.270;20.978;2023-02-28T00:29:09;-1.30;99.90
23532;DHT22;11943;52.270;20.978;2023-02-28T00:31:35;-1.30;99.90
23532;DHT22;11943;52.270;20.978;2023-02-28T00:34:00;-1.20;99.90
23532;DHT22;11943;52.270;20.978;2023-02-28T00:36:26;-1.30;99.90
23532;DHT22;11943;52.270;20.978;2023-02-28T00:38:51;-1.30;99.90
23532;DHT22;11943;52.270;20.978;2023-02-28T00:41:17;-1.30;99.90
23532;DHT22;11943;52.270;20.978;2023-02-28T00:43:42;-1.30;99.90
23532;DHT22;11943;52.270;20.978;2023-02-28T00:46:08;-1.40;99.90
23532;DHT22;11943;52.270;20.978;2023-02-28T00:48:34;-1.40;99.90
23532;DHT22;11943;52.270;20.978;2023-02-28T00:50:59;-1.50;99.90
23532;DHT22;11943;52.270;20.978;2023-02-28T00:53:25;-1.60;99.90
23532;DHT22;11943;52.270;20.978;2023-02-28T00:55:50;-1.60;99.90
23532;DHT22;11943;52.270;20.978;2023-02-28T00:58:16;-1.80;99.90
23532;DHT22;11943;52.270;20.978;2023-02-28T01:00:41;-1.80;99.90
23532;DHT22;11943;52.270;20.978;2023-02-28T01:03:07;-1.60;99.90
23532;DHT22;11943;52.270;20.978;2023-02-28T01:05:32;-1.60;99.90
23532;DHT22;11943;52.270;20.978;2023-02-28T01:07:58;-1.60;99.90
23532;DHT22;11943;52.270;20.978;2023-02-28T01:10:24;-1.60;99.90
23532;DHT22;11943;52.270;20.978;2023-02-28T01:12:50;-1.60;99.90
23532;DHT22;11943;52.270;20.978;2023-02-28T01:15:15;-1.70;99.90
23532;DHT22;11943;52.270;20.978;2023-02-28T01:17:41;-1.70;99.90
23532;DHT22;11943;52.270;20.978;2023-02-28T01:20:07;-1.80;99.90
23532;DHT22;11943;52.270;20.978;2023-02-28T01:22:34;-1.80;99.90
23532;DHT22;11943;52.270;20.978;2023-02-28T01:24:59;-1.80;99.90
23532;DHT22;11943;52.270;20.978;2023-02-28T01:27:25;-1.70;99.90
23532;DHT22;11943;52.270;20.978;2023-02-28T01:29:51;-1.70;99.90
23532;DHT22;11943;52.270;20.978;2023-02-28T01:32:17;-1.70;99.90
23532;DHT22;11943;52.270;20.978;2023-02-28T01:34:42;-1.60;99.90
23532;DHT22;11943;52.270;20.978;2023-02-28T01:37:08;-1.70;99.90
23532;DHT22;11943;52.270;20.978;2023-02-28T01:39:33;-1.70;99.90
23532;DHT22;11943;52.270;20.978;2023-02-28T01:41:59;-1.70;99.90
23532;DHT22;11943;52.270;20.978;2023-02-28T01:47:08;-1.70;99.90
23532;DHT22;11943;52.270;20.978;2023-02-28T01:49:34;-1.70;99.90
23532;DHT22;11943;52.270;20.978;2023-02-28T01:51:59;-1.70;99.90
23532;DHT22;11943;52.270;20.978;2023-02-28T01:54:26;-1.70;99.90
23532;DHT22;11943;52.270;20.978;2023-02-28T01:56:57;-1.80;99.90
23532;DHT22;11943;52.270;20.978;2023-02-28T01:59:29;-1.90;99.90
23532;DHT22;11943;52.270;20.978;2023-02-28T02:01:56;-1.80;99.90
23532;DHT22;11943;52.270;20.978;2023-02-28T02:04:23;-1.90;99.90
23532;DHT22;11943;52.270;20.978;2023-02-28T02:06:50;-1.90;99.90
23532;DHT22;11943;52.270;20.978;2023-02-28T02:09:15;-2.00;99.90
23532;DHT22;11943;52.270;20.978;2023-02-28T02:11:42;-2.00;99.90
23532;DHT22;11943;52.270;20.978;2023-02-28T02:16:52;-2.10;99.90
23532;DHT22;11943;52.270;20.978;2023-02-28T02:27:26;-1.40;99.90
23532;DHT22;11943;52.270;20.978;2023-02-28T02:30:05;-2.10;99.90
23532;DHT22;11943;52.270;20.978;2023-02-28T02:32:41;-2.10;99.90
23532;DHT22;11943;52.270;20.978;2023-02-28T02:35:15;-2.10;99.90
23532;DHT22;11943;52.270;20.978;2023-02-28T02:40:15;-0.60;99.90
23532;DHT22;11943;52.270;20.978;2023-02-28T02:42:47;-2.20;99.90
23532;DHT22;11943;52.270;20.978;2023-02-28T02:48:01;-2.00;99.90
23532;DHT22;11943;52.270;20.978;2023-02-28T02:50:29;-2.10;99.90
23532;DHT22;11943;52.270;20.978;2023-02-28T02:52:57;-2.10;99.90
23532;DHT22;11943;52.270;20.978;2023-02-28T02:55:25;-2.00;99.90
23532;DHT22;11943;52.270;20.978;2023-02-28T02:57:52;-2.00;99.90
23532;DHT22;11943;52.270;20.978;2023-02-28T03:00:20;-2.10;99.90
23532;DHT22;11943;52.270;20.978;2023-02-28T03:02:48;-2.10;99.90
23532;DHT22;11943;52.270;20.978;2023-02-28T03:05:17;-2.10;99.90
23532;DHT22;11943;52.270;20.978;2023-02-28T03:07:44;-2.10;99.90
23532;DHT22;11943;52.270;20.978;2023-02-28T03:10:33;-2.00;99.90
23532;DHT22;11943;52.270;20.978;2023-02-28T03:18:41;-2.20;99.90
23532;DHT22;11943;52.270;20.978;2023-02-28T03:21:18;-2.10;99.90
23532;DHT22;11943;52.270;20.978;2023-02-28T03:23:48;-2.20;99.90
23532;DHT22;11943;52.270;20.978;2023-02-28T03:26:19;-2.30;99.90
23532;DHT22;11943;52.270;20.978;2023-02-28T03:33:41;-2.30;99.90
23532;DHT22;11943;52.270;20.978;2023-02-28T03:38:34;-0.70;99.90
23532;DHT22;11943;52.270;20.978;2023-02-28T03:43:39;-2.30;99.90
23532;DHT22;11943;52.270;20.978;2023-02-28T03:46:08;-2.30;99.90
23532;DHT22;11943;52.270;20.978;2023-02-28T03:48:36;-2.20;99.90
23532;DHT22;11943;52.270;20.978;2023-02-28T03:51:04;-1.00;99.90
23532;DHT22;11943;52.270;20.978;2023-02-28T03:53:37;-2.20;99.90
23532;DHT22;11943;52.270;20.978;2023-02-28T03:56:11;-2.20;99.90
23532;DHT22;11943;52.270;20.978;2023-02-28T03:58:47;-2.20;99.90
23532;DHT22;11943;52.270;20.978;2023-02-28T04:01:24;-2.10;99.90
23532;DHT22;11943;52.270;20.978;2023-02-28T04:03:51;-2.30;99.90
23532;DHT22;11943;52.270;20.978;2023-02-28T04:06:20;-2.40;99.90
23532;DHT22;11943;52.270;20.978;2023-02-28T04:08:46;-2.50;99.90
23532;DHT22;11943;52.270;20.978;2023-02-28T04:11:22;-2.60;99.90
23532;DHT22;11943;52.270;20.978;2023-02-28T04:13:49;-2.40;99.90
23532;DHT22;11943;52.270;20.978;2023-02-28T04:16:15;-2.40;99.90
23532;DHT22;11943;52.270;20.978;2023-02-28T04:18:41;-2.30;99.90
23532;DHT22;11943;52.270;20.978;2023-02-28T04:21:08;-2.30;99.90
23532;DHT22;11943;52.270;20.978;2023-02-28T04:23:34;-2.40;99.90
23532;DHT22;11943;52.270;20.978;2023-02-28T04:25:59;-2.40;99.90
23532;DHT22;11943;52.270;20.978;2023-02-28T04:28:25;-2.50;99.90
23532;DHT22;11943;52.270;20.978;2023-02-28T04:31:01;-2.50;99.90
23532;DHT22;11943;52.270;20.978;2023-02-28T04:33:27;-2.50;99.90
23532;DHT22;11943;52.270;20.978;2023-02-28T04:36:00;-2.50;99.90
23532;DHT22;11943;52.270;20.978;2023-02-28T04:38:25;-2.50;99.90
23532;DHT22;11943;52.270;20.978;2023-02-28T04:40:51;-2.50;99.90
23532;DHT22;11943;52.270;20.978;2023-02-28T04:43:16;-0.20;99.90
23532;DHT22;11943;52.270;20.978;2023-02-28T04:45:42;-2.40;99.90
23532;DHT22;11943;52.270;20.978;2023-02-28T04:48:07;-2.40;99.90
23532;DHT22;11943;52.270;20.978;2023-02-28T04:50:33;-2.50;99.90
23532;DHT22;11943;52.270;20.978;2023-02-28T04:52:58;-2.50;99.90
23532;DHT22;11943;52.270;20.978;2023-02-28T04:55:24;-2.60;99.90
23532;DHT22;11943;52.270;20.978;2023-02-28T04:57:49;-2.50;99.90
23532;DHT22;11943;52.270;20.978;2023-02-28T05:00:15;-2.40;99.90
23532;DHT22;11943;52.270;20.978;2023-02-28T05:02:42;-2.70;99.90
23532;DHT22;11943;52.270;20.978;2023-02-28T05:05:08;-2.80;99.90
23532;DHT22;11943;52.270;20.978;2023-02-28T05:07:33;-2.80;99.90
23532;DHT22;11943;52.270;20.978;2023-02-28T05:09:59;-2.70;99.90
23532;DHT22;11943;52.270;20.978;2023-02-28T05:12:24;-2.60;99.90
23532;DHT22;11943;52.270;20.978;2023-02-28T05:14:50;-0.70;99.90
23532;DHT22;11943;52.270;20.978;2023-02-28T05:17:15;-2.70;99.90
23532;DHT22;11943;52.270;20.978;2023-02-28T05:19:41;-2.70;99.90
23532;DHT22;11943;52.270;20.978;2023-02-28T05:22:12;-2.80;99.90
23532;DHT22;11943;52.270;20.978;2023-02-28T05:24:38;-2.60;99.90
23532;DHT22;11943;52.270;20.978;2023-02-28T05:27:03;-2.60;99.90
23532;DHT22;11943;52.270;20.978;2023-02-28T05:29:29;-2.60;99.90
23532;DHT22;11943;52.270;20.978;2023-02-28T05:31:54;-2.60;99.90
23532;DHT22;11943;52.270;20.978;2023-02-28T05:34:20;-2.70;99.90
23532;DHT22;11943;52.270;20.978;2023-02-28T05:36:45;-2.70;99.90
23532;DHT22;11943;52.270;20.978;2023-02-28T05:39:11;-2.70;99.90
23532;DHT22;11943;52.270;20.978;2023-02-28T05:41:41;-2.70;99.90
23532;DHT22;11943;52.270;20.978;2023-02-28T05:44:07;-2.50;99.90
23532;DHT22;11943;52.270;20.978;2023-02-28T05:46:32;-2.50;99.90
23532;DHT22;11943;52.270;20.978;2023-02-28T05:48:58;-2.40;99.90
23532;DHT22;11943;52.270;20.978;2023-02-28T05:51:25;-2.30;99.90
23532;DHT22;11943;52.270;20.978;2023-02-28T05:53:50;-2.20;99.90
23532;DHT22;11943;52.270;20.978;2023-02-28T05:56:16;-2.20;99.90
23532;DHT22;11943;52.270;20.978;2023-02-28T05:58:41;-1.80;99.90
23532;DHT22;11943;52.270;20.978;2023-02-28T06:01:24;-2.10;99.90
23532;DHT22;11943;52.270;20.978;2023-02-28T06:03:50;-2.00;99.90
23532;DHT22;11943;52.270;20.978;2023-02-28T06:06:16;-2.00;99.90
23532;DHT22;11943;52.270;20.978;2023-02-28T06:08:41;-2.00;99.90
23532;DHT22;11943;52.270;20.978;2023-02-28T06:11:08;-1.90;99.90
23532;DHT22;11943;52.270;20.978;2023-02-28T06:13:34;-1.80;99.90
23532;DHT22;11943;52.270;20.978;2023-02-28T06:16:02;-1.10;99.90
23532;DHT22;11943;52.270;20.978;2023-02-28T06:18:27;-1.80;99.90
23532;DHT22;11943;52.270;20.978;2023-02-28T06:20:53;-1.70;99.90
23532;DHT22;11943;52.270;20.978;2023-02-28T06:23:20;-1.80;99.90
23532;DHT22;11943;52.270;20.978;2023-02-28T06:25:45;-1.60;99.90
23532;DHT22;11943;52.270;20.978;2023-02-28T06:28:11;-1.60;99.90
23532;DHT22;11943;52.270;20.978;2023-02-28T06:30:37;-1.60;99.90
23532;DHT22;11943;52.270;20.978;2023-02-28T06:33:03;-1.50;99.90
23532;DHT22;11943;52.270;20.978;2023-02-28T06:35:28;-1.40;99.90
23532;DHT22;11943;52.270;20.978;2023-02-28T06:37:54;-1.30;99.90
23532;DHT22;11943;52.270;20.978;2023-02-28T06:40:20;-1.20;99.90
23532;DHT22;11943;52.270;20.978;2023-02-28T06:42:46;-1.20;99.90
23532;DHT22;11943;52.270;20.978;2023-02-28T06:45:11;-1.10;99.90
23532;DHT22;11943;52.270;20.978;2023-02-28T06:47:37;-1.00;99.90
23532;DHT22;11943;52.270;20.978;2023-02-28T06:50:03;-0.60;99.90
23532;DHT22;11943;52.270;20.978;2023-02-28T06:52:29;-1.00;99.90
23532;DHT22;11943;52.270;20.978;2023-02-28T06:54:55;-0.90;99.90
23532;DHT22;11943;52.270;20.978;2023-02-28T06:57:27;-0.80;99.90
23532;DHT22;11943;52.270;20.978;2023-02-28T06:59:52;-0.70;99.90
23532;DHT22;11943;52.270;20.978;2023-02-28T07:02:18;-0.60;99.90
23532;DHT22;11943;52.270;20.978;2023-02-28T07:04:43;-0.30;99.90
23532;DHT22;11943;52.270;20.978;2023-02-28T07:07:09;-0.40;99.90
23532;DHT22;11943;52.270;20.978;2023-02-28T07:09:35;-0.30;99.90
23532;DHT22;11943;52.270;20.978;2023-02-28T07:12:00;-0.20;99.90
23532;DHT22;11943;52.270;20.978;2023-02-28T07:14:26;0.00;99.90
23532;DHT22;11943;52.270;20.978;2023-02-28T07:16:51;0.00;99.90
23532;DHT22;11943;52.270;20.978;2023-02-28T07:19:17;0.10;98.80
23532;DHT22;11943;52.270;20.978;2023-02-28T07:21:42;0.30;97.40
23532;DHT22;11943;52.270;20.978;2023-02-28T07:24:08;0.20;96.00
23532;DHT22;11943;52.270;20.978;2023-02-28T07:26:33;0.30;95.90
23532;DHT22;11943;52.270;20.978;2023-02-28T07:29:00;0.40;94.90
23532;DHT22;11943;52.270;20.978;2023-02-28T07:31:25;0.50;94.10
23532;DHT22;11943;52.270;20.978;2023-02-28T07:33:51;0.60;93.00
23532;DHT22;11943;52.270;20.978;2023-02-28T07:36:16;0.80;92.30
23532;DHT22;11943;52.270;20.978;2023-02-28T07:38:44;0.90;91.90
23532;DHT22;11943;52.270;20.978;2023-02-28T07:41:11;1.00;90.80
23532;DHT22;11943;52.270;20.978;2023-02-28T07:43:36;1.10;90.40
23532;DHT22;11943;52.270;20.978;2023-02-28T07:46:03;1.00;88.10
23532;DHT22;11943;52.270;20.978;2023-02-28T07:48:29;1.10;86.20
23532;DHT22;11943;52.270;20.978;2023-02-28T07:50:55;1.30;87.00
23532;DHT22;11943;52.270;20.978;2023-02-28T07:53:20;1.10;84.10
23532;DHT22;11943;52.270;20.978;2023-02-28T07:55:46;1.20;85.40
23532;DHT22;11943;52.270;20.978;2023-02-28T07:58:11;1.20;83.90
23532;DHT22;11943;52.270;20.978;2023-02-28T08:00:37;1.50;81.30
23532;DHT22;11943;52.270;20.978;2023-02-28T08:03:03;1.50;82.30
23532;DHT22;11943;52.270;20.978;2023-02-28T08:05:28;1.50;81.10
23532;DHT22;11943;52.270;20.978;2023-02-28T08:07:55;1.60;81.30
23532;DHT22;11943;52.270;20.978;2023-02-28T08:10:20;1.60;80.20
23532;DHT22;11943;52.270;20.978;2023-02-28T08:12:46;1.40;78.90
23532;DHT22;11943;52.270;20.978;2023-02-28T08:15:11;1.60;79.30
23532;DHT22;11943;52.270;20.978;2023-02-28T08:17:37;1.80;79.00
23532;DHT22;11943;52.270;20.978;2023-02-28T08:20:03;1.80;77.50
23532;DHT22;11943;52.270;20.978;2023-02-28T08:22:29;1.60;78.30
23532;DHT22;11943;52.270;20.978;2023-02-28T08:24:54;1.70;79.30
23532;DHT22;11943;52.270;20.978;2023-02-28T08:27:20;1.10;77.80
23532;DHT22;11943;52.270;20.978;2023-02-28T08:29:46;1.40;79.50
23532;DHT22;11943;52.270;20.978;2023-02-28T08:32:11;1.30;78.70
23532;DHT22;11943;52.270;20.978;2023-02-28T08:34:38;1.40;78.70
23532;DHT22;11943;52.270;20.978;2023-02-28T08:37:04;1.60;78.50
23532;DHT22;11943;52.270;20.978;2023-02-28T08:39:29;2.00;77.60
23532;DHT22;11943;52.270;20.978;2023-02-28T08:41:55;2.20;76.50
23532;DHT22;11943;52.270;20.978;2023-02-28T08:44:20;2.00;76.40
23532;DHT22;11943;52.270;20.978;2023-02-28T08:46:46;2.20;76.80
23532;DHT22;11943;52.270;20.978;2023-02-28T08:49:11;2.40;76.40
23532;DHT22;11943;52.270;20.978;2023-02-28T08:51:37;2.40;74.70
23532;DHT22;11943;52.270;20.978;2023-02-28T08:54:03;2.60;74.50
23532;DHT22;11943;52.270;20.978;2023-02-28T08:56:29;2.80;74.50
23532;DHT22;11943;52.270;20.978;2023-02-28T08:58:55;2.80;72.50
23532;DHT22;11943;52.270;20.978;2023-02-28T09:01:21;2.90;71.80
23532;DHT22;11943;52.270;20.978;2023-02-28T09:03:48;2.90;71.50
23532;DHT22;11943;52.270;20.978;2023-02-28T09:06:14;2.90;71.80
23532;DHT22;11943;52.270;20.978;2023-02-28T09:08:40;3.10;69.70
23532;DHT22;11943;52.270;20.978;2023-02-28T09:11:06;3.20;69.80
23532;DHT22;11943;52.270;20.978;2023-02-28T09:13:32;3.60;70.30
23532;DHT22;11943;52.270;20.978;2023-02-28T09:15:58;3.80;69.20
23532;DHT22;11943;52.270;20.978;2023-02-28T09:18:24;3.90;67.80
23532;DHT22;11943;52.270;20.978;2023-02-28T09:20:50;4.10;67.30
23532;DHT22;11943;52.270;20.978;2023-02-28T09:23:15;4.20;66.80
23532;DHT22;11943;52.270;20.978;2023-02-28T09:25:48;4.00;67.00
23532;DHT22;11943;52.270;20.978;2023-02-28T09:28:14;4.20;65.70
23532;DHT22;11943;52.270;20.978;2023-02-28T09:30:41;4.30;64.80
23532;DHT22;11943;52.270;20.978;2023-02-28T09:33:07;4.20;65.80
23532;DHT22;11943;52.270;20.978;2023-02-28T09:35:33;4.00;65.10
23532;DHT22;11943;52.270;20.978;2023-02-28T09:37:58;4.00;66.00
23532;DHT22;11943;52.270;20.978;2023-02-28T09:40:24;4.10;65.30
23532;DHT22;11943;52.270;20.978;2023-02-28T09:42:53;3.70;64.60
23532;DHT22;11943;52.270;20.978;2023-02-28T09:45:33;3.70;66.00
23532;DHT22;11943;52.270;20.978;2023-02-28T09:48:00;3.90;66.30
23532;DHT22;11943;52.270;20.978;2023-02-28T09:50:36;3.90;65.70
23532;DHT22;11943;52.270;20.978;2023-02-28T09:53:10;3.60;66.20
23532;DHT22;11943;52.270;20.978;2023-02-28T09:55:39;3.60;67.60
23532;DHT22;11943;52.270;20.978;2023-02-28T09:58:16;3.70;66.80
23532;DHT22;11943;52.270;20.978;2023-02-28T10:00:43;3.80;66.30
23532;DHT22;11943;52.270;20.978;2023-02-28T10:03:20;3.60;66.80
23532;DHT22;11943;52.270;20.978;2023-02-28T10:08:32;3.00;67.00
23532;DHT22;11943;52.270;20.978;2023-02-28T10:11:00;3.90;67.40
23532;DHT22;11943;52.270;20.978;2023-02-28T10:16:20;4.10;65.00
23532;DHT22;11943;52.270;20.978;2023-02-28T10:18:49;4.50;64.90
23532;DHT22;11943;52.270;20.978;2023-02-28T10:21:17;4.30;64.40
23532;DHT22;11943;52.270;20.978;2023-02-28T10:23:44;4.30;63.50
23532;DHT22;11943;52.270;20.978;2023-02-28T10:26:13;4.30;63.60
23532;DHT22;11943;52.270;20.978;2023-02-28T10:28:41;3.70;65.00
23532;DHT22;11943;52.270;20.978;2023-02-28T10:31:08;4.40;64.30
23532;DHT22;11943;52.270;20.978;2023-02-28T10:33:36;4.40;64.40
23532;DHT22;11943;52.270;20.978;2023-02-28T10:36:03;4.20;65.30
23532;DHT22;11943;52.270;20.978;2023-02-28T10:43:29;4.40;64.90
23532;DHT22;11943;52.270;20.978;2023-02-28T10:48:27;4.50;64.40
23532;DHT22;11943;52.270;20.978;2023-02-28T10:50:55;4.70;64.30
23532;DHT22;11943;52.270;20.978;2023-02-28T10:55:58;4.70;63.40
23532;DHT22;11943;52.270;20.978;2023-02-28T10:58:30;5.00;62.70
23532;DHT22;11943;52.270;20.978;2023-02-28T11:00:55;4.60;62.80
23532;DHT22;11943;52.270;20.978;2023-02-28T11:03:34;4.60;64.10
23532;DHT22;11943;52.270;20.978;2023-02-28T11:06:05;4.60;65.50
23532;DHT22;11943;52.270;20.978;2023-02-28T11:08:31;4.70;65.60
23532;DHT22;11943;52.270;20.978;2023-02-28T11:11:01;4.80;63.80
23532;DHT22;11943;52.270;20.978;2023-02-28T11:13:31;4.60;63.10
23532;DHT22;11943;52.270;20.978;2023-02-28T11:15:58;5.00;63.30
23532;DHT22;11943;52.270;20.978;2023-02-28T11:18:27;4.90;62.50
23532;DHT22;11943;52.270;20.978;2023-02-28T11:20:54;4.80;63.20
23532;DHT22;11943;52.270;20.978;2023-02-28T11:23:21;5.10;63.00
23532;DHT22;11943;52.270;20.978;2023-02-28T11:25:50;5.60;61.20
23532;DHT22;11943;52.270;20.978;2023-02-28T11:28:24;5.70;60.10
23532;DHT22;11943;52.270;20.978;2023-02-28T11:31:32;6.20;59.70
23532;DHT22;11943;52.270;20.978;2023-02-28T11:33:49;6.70;58.90
23532;DHT22;11943;52.270;20.978;2023-02-28T11:36:18;6.90;57.10
23532;DHT22;11943;52.270;20.978;2023-02-28T11:38:44;8.00;58.50
23532;DHT22;11943;52.270;20.978;2023-02-28T11:46:10;5.90;60.40
23532;DHT22;11943;52.270;20.978;2023-02-28T11:48:41;5.80;59.30
23532;DHT22;11943;52.270;20.978;2023-02-28T11:53:58;5.80;59.80
23532;DHT22;11943;52.270;20.978;2023-02-28T11:56:43;5.50;59.40
23532;DHT22;11943;52.270;20.978;2023-02-28T12:01:53;5.30;61.10
23532;DHT22;11943;52.270;20.978;2023-02-28T12:10:28;5.40;62.20
23532;DHT22;11943;52.270;20.978;2023-02-28T12:20:59;6.90;57.80
23532;DHT22;11943;52.270;20.978;2023-02-28T12:28:41;6.50;58.10
23532;DHT22;11943;52.270;20.978;2023-02-28T12:31:11;7.40;56.30
23532;DHT22;11943;52.270;20.978;2023-02-28T12:33:42;6.90;55.70
23532;DHT22;11943;52.270;20.978;2023-02-28T12:36:09;7.10;56.50
23532;DHT22;11943;52.270;20.978;2023-02-28T12:38:47;7.00;56.60
23532;DHT22;11943;52.270;20.978;2023-02-28T12:41:22;6.80;57.30
23532;DHT22;11943;52.270;20.978;2023-02-28T12:44:02;6.60;58.10
23532;DHT22;11943;52.270;20.978;2023-02-28T12:48:57;6.30;58.70
23532;DHT22;11943;52.270;20.978;2023-02-28T12:51:24;5.70;59.70
23532;DHT22;11943;52.270;20.978;2023-02-28T12:59:10;5.70;60.80
23532;DHT22;11943;52.270;20.978;2023-02-28T13:04:19;5.80;59.90
23532;DHT22;11943;52.270;20.978;2023-02-28T13:09:24;5.60;62.10
23532;DHT22;11943;52.270;20.978;2023-02-28T13:11:50;5.60;61.90
23532;DHT22;11943;52.270;20.978;2023-02-28T13:19:17;5.50;62.40
23532;DHT22;11943;52.270;20.978;2023-02-28T13:21:44;5.40;62.70
23532;DHT22;11943;52.270;20.978;2023-02-28T13:24:10;5.50;62.60
23532;DHT22;11943;52.270;20.978;2023-02-28T13:31:26;5.30;61.50
23532;DHT22;11943;52.270;20.978;2023-02-28T13:36:31;5.20;62.90
23532;DHT22;11943;52.270;20.978;2023-02-28T13:39:01;5.30;63.20
23532;DHT22;11943;52.270;20.978;2023-02-28T13:46:26;5.30;63.40
23532;DHT22;11943;52.270;20.978;2023-02-28T13:48:52;5.30;63.30
23532;DHT22;11943;52.270;20.978;2023-02-28T13:51:28;5.10;63.40
23532;DHT22;11943;52.270;20.978;2023-02-28T13:54:03;4.90;63.70
23532;DHT22;11943;52.270;20.978;2023-02-28T13:56:32;5.10;64.30
23532;DHT22;11943;52.270;20.978;2023-02-28T13:59:04;5.20;64.80
23532;DHT22;11943;52.270;20.978;2023-02-28T14:04:13;5.30;64.00
23532;DHT22;11943;52.270;20.978;2023-02-28T14:06:46;5.50;64.20
23532;DHT22;11943;52.270;20.978;2023-02-28T14:09:17;5.40;63.40
23532;DHT22;11943;52.270;20.978;2023-02-28T14:11:44;5.40;64.50
23532;DHT22;11943;52.270;20.978;2023-02-28T14:16:55;5.00;65.30
23532;DHT22;11943;52.270;20.978;2023-02-28T14:19:28;5.10;66.60
23532;DHT22;11943;52.270;20.978;2023-02-28T14:27:49;5.40;64.80
23532;DHT22;11943;52.270;20.978;2023-02-28T14:30:40;5.30;64.30
23532;DHT22;11943;52.270;20.978;2023-02-28T14:35:43;5.20;65.50
23532;DHT22;11943;52.270;20.978;2023-02-28T14:38:17;5.20;64.90
23532;DHT22;11943;52.270;20.978;2023-02-28T14:40:43;5.00;65.30
23532;DHT22;11943;52.270;20.978;2023-02-28T14:43:24;4.80;66.10
23532;DHT22;11943;52.270;20.978;2023-02-28T14:45:59;4.70;66.50
23532;DHT22;11943;52.270;20.978;2023-02-28T14:48:25;4.70;67.30
23532;DHT22;11943;52.270;20.978;2023-02-28T14:50:56;4.50;67.60
23532;DHT22;11943;52.270;20.978;2023-02-28T14:53:23;4.60;67.70
23532;DHT22;11943;52.270;20.978;2023-02-28T14:55:50;4.70;67.90
23532;DHT22;11943;52.270;20.978;2023-02-28T14:58:39;4.80;67.10
23532;DHT22;11943;52.270;20.978;2023-02-28T15:01:03;4.70;67.30
23532;DHT22;11943;52.270;20.978;2023-02-28T15:03:34;4.50;68.70
23532;DHT22;11943;52.270;20.978;2023-02-28T15:06:01;4.50;68.50
23532;DHT22;11943;52.270;20.978;2023-02-28T15:08:27;4.50;68.50
23532;DHT22;11943;52.270;20.978;2023-02-28T15:10:58;4.40;69.00
23532;DHT22;11943;52.270;20.978;2023-02-28T15:13:47;4.40;69.30
23532;DHT22;11943;52.270;20.978;2023-02-28T15:18:44;4.50;70.10
23532;DHT22;11943;52.270;20.978;2023-02-28T15:21:12;4.00;71.00
23532;DHT22;11943;52.270;20.978;2023-02-28T15:23:39;3.90;71.90
23532;DHT22;11943;52.270;20.978;2023-02-28T15:26:10;3.90;72.80
23532;DHT22;11943;52.270;20.978;2023-02-28T15:28:36;3.80;73.40
23532;DHT22;11943;52.270;20.978;2023-02-28T15:31:03;3.90;74.70
23532;DHT22;11943;52.270;20.978;2023-02-28T15:33:30;4.00;75.50
23532;DHT22;11943;52.270;20.978;2023-02-28T15:36:15;3.60;75.80
23532;DHT22;11943;52.270;20.978;2023-02-28T15:38:43;3.50;76.20
23532;DHT22;11943;52.270;20.978;2023-02-28T15:41:25;3.40;76.60
23532;DHT22;11943;52.270;20.978;2023-02-28T15:44:13;3.30;76.90
23532;DHT22;11943;52.270;20.978;2023-02-28T15:46:44;3.20;77.30
23532;DHT22;11943;52.270;20.978;2023-02-28T15:49:17;3.20;78.60
23532;DHT22;11943;52.270;20.978;2023-02-28T15:51:44;3.10;78.40
23532;DHT22;11943;52.270;20.978;2023-02-28T15:54:14;3.10;79.20
23532;DHT22;11943;52.270;20.978;2023-02-28T15:56:44;3.00;79.50
23532;DHT22;11943;52.270;20.978;2023-02-28T15:59:14;3.00;80.50
23532;DHT22;11943;52.270;20.978;2023-02-28T16:01:40;2.90;80.10
23532;DHT22;11943;52.270;20.978;2023-02-28T16:04:11;2.80;80.40
23532;DHT22;11943;52.270;20.978;2023-02-28T16:09:03;2.80;81.10
23532;DHT22;11943;52.270;20.978;2023-02-28T16:11:29;2.70;81.80
23532;DHT22;11943;52.270;20.978;2023-02-28T16:13:55;2.70;82.40
23532;DHT22;11943;52.270;20.978;2023-02-28T16:16:22;2.60;82.50
23532;DHT22;11943;52.270;20.978;2023-02-28T16:18:48;2.60;83.00
23532;DHT22;11943;52.270;20.978;2023-02-28T16:21:14;2.60;83.30
23532;DHT22;11943;52.270;20.978;2023-02-28T16:23:39;2.50;83.70
23532;DHT22;11943;52.270;20.978;2023-02-28T16:26:05;2.50;84.60
23532;DHT22;11943;52.270;20.978;2023-02-28T16:28:33;2.40;84.70
23532;DHT22;11943;52.270;20.978;2023-02-28T16:31:00;2.40;85.20
23532;DHT22;11943;52.270;20.978;2023-02-28T16:33:28;2.30;86.20
23532;DHT22;11943;52.270;20.978;2023-02-28T16:35:53;2.20;86.80
23532;DHT22;11943;52.270;20.978;2023-02-28T16:38:19;2.20;87.10
23532;DHT22;11943;52.270;20.978;2023-02-28T16:40:44;2.20;87.60
23532;DHT22;11943;52.270;20.978;2023-02-28T16:43:15;2.20;88.60
23532;DHT22;11943;52.270;20.978;2023-02-28T16:45:41;2.10;88.80
23532;DHT22;11943;52.270;20.978;2023-02-28T16:48:08;2.10;89.50
23532;DHT22;11943;52.270;20.978;2023-02-28T16:50:36;2.00;90.10
23532;DHT22;11943;52.270;20.978;2023-02-28T16:53:01;2.60;90.70
23532;DHT22;11943;52.270;20.978;2023-02-28T16:55:27;2.00;91.40
23532;DHT22;11943;52.270;20.978;2023-02-28T16:57:56;1.90;91.90
23532;DHT22;11943;52.270;20.978;2023-02-28T17:00:23;1.90;92.40
23532;DHT22;11943;52.270;20.978;2023-02-28T17:02:49;1.80;92.30
23532;DHT22;11943;52.270;20.978;2023-02-28T17:05:15;2.00;92.10
23532;DHT22;11943;52.270;20.978;2023-02-28T17:07:41;1.90;92.30
23532;DHT22;11943;52.270;20.978;2023-02-28T17:10:25;1.90;92.30
23532;DHT22;11943;52.270;20.978;2023-02-28T17:12:51;1.90;92.20
23532;DHT22;11943;52.270;20.978;2023-02-28T17:15:18;1.90;92.30
23532;DHT22;11943;52.270;20.978;2023-02-28T17:17:44;1.90;92.80
23532;DHT22;11943;52.270;20.978;2023-02-28T17:20:14;1.80;93.90
23532;DHT22;11943;52.270;20.978;2023-02-28T17:22:39;1.70;94.00
23532;DHT22;11943;52.270;20.978;2023-02-28T17:25:05;1.70;95.20
23532;DHT22;11943;52.270;20.978;2023-02-28T17:27:31;1.60;96.00
23532;DHT22;11943;52.270;20.978;2023-02-28T17:29:56;1.60;97.30
23532;DHT22;11943;52.270;20.978;2023-02-28T17:32:22;1.40;97.80
23532;DHT22;11943;52.270;20.978;2023-02-28T17:34:47;1.30;98.80
23532;DHT22;11943;52.270;20.978;2023-02-28T17:37:13;1.30;99.90
23532;DHT22;11943;52.270;20.978;2023-02-28T17:39:38;1.20;99.90